createdAt,value
2022-11-02T00:01:57.497Z,101182.47
2022-11-02T00:04:59.135Z,101173.63
2022-11-02T00:08:00.690Z,101170.09
2022-11-02T00:11:02.238Z,101175.63
2022-11-02T00:14:03.995Z,101162.38
2022-11-02T00:17:05.785Z,101159.84
2022-11-02T00:20:08.296Z,101177.75
2022-11-02T00:23:12.326Z,101166.34
2022-11-02T00:26:14.338Z,101157.47
2022-11-02T00:29:15.916Z,101151.28
2022-11-02T00:32:17.538Z,101139.75
2022-11-02T00:35:19.118Z,101140.50
2022-11-02T00:38:20.623Z,101133.34
2022-11-02T00:41:22.396Z,101135.16
2022-11-02T00:44:23.915Z,101144.03
2022-11-02T00:47:25.493Z,101132.47
2022-11-02T00:50:27.065Z,101136.97
2022-11-02T00:53:28.570Z,101138.69
2022-11-02T00:56:30.103Z,101123.53
2022-11-02T00:59:31.673Z,101126.94
2022-11-02T01:02:34.508Z,101129.50
2022-11-02T01:05:37.798Z,101129.50
2022-11-02T01:08:39.475Z,101126.72
2022-11-02T01:11:41.521Z,101117.84
2022-11-02T01:14:43.077Z,101108.13
2022-11-02T01:17:44.606Z,101092.97
2022-11-02T01:20:46.125Z,101122.47
2022-11-02T01:23:48.244Z,101116.25
2022-11-02T01:26:53.505Z,101117.53
2022-11-02T01:29:55.117Z,101108.03
2022-11-02T01:32:56.646Z,101100.31
2022-11-02T01:35:58.407Z,101093.50
2022-11-02T01:38:59.920Z,101098.09
2022-11-02T01:42:01.738Z,101098.22
2022-11-02T01:45:03.585Z,101086.75
2022-11-02T01:48:05.528Z,101085.28
2022-11-02T01:51:11.533Z,101093.47
2022-11-02T01:54:17.622Z,101084.00
2022-11-02T01:57:22.096Z,101075.97
2022-11-02T02:00:23.813Z,101085.13
2022-11-02T02:03:25.730Z,101093.25
2022-11-02T02:06:27.346Z,101077.38
2022-11-02T02:09:30.087Z,101072.22
2022-11-02T02:12:33.147Z,101083.78
2022-11-02T02:15:56.876Z,101066.03
2022-11-02T02:19:02.571Z,101062.72
2022-11-02T02:22:07.147Z,101069.03
2022-11-02T02:25:11.523Z,101070.09
2022-11-02T02:28:45.139Z,101059.59
2022-11-02T02:31:49.428Z,101058.09
2022-11-02T02:34:59.082Z,101056.50
2022-11-02T02:38:04.758Z,101054.78
2022-11-02T02:41:14.183Z,101052.09
2022-11-02T02:44:23.057Z,101049.63
2022-11-02T02:47:27.864Z,101049.00
2022-11-02T02:50:35.724Z,101052.72
2022-11-02T02:53:45.090Z,101046.53
2022-11-02T02:57:00.980Z,101047.47
2022-11-02T03:00:03.451Z,101044.06
2022-11-02T03:03:05.700Z,101052.06
2022-11-02T03:06:09.979Z,101053.78
2022-11-02T03:09:14.326Z,101049.41
2022-11-02T03:12:39.347Z,101040.53
2022-11-02T03:15:44.784Z,101049.59
2022-11-02T03:18:57.847Z,101043.44
2022-11-02T03:22:05.405Z,101039.81
2022-11-02T03:25:15.588Z,101034.47
2022-11-02T03:28:48.760Z,101045.88
2022-11-02T03:32:19.768Z,101047.59
2022-11-02T03:35:30.994Z,101037.69
2022-11-02T03:38:42.425Z,101040.25
2022-11-02T03:41:46.211Z,101042.94
2022-11-02T03:44:52.370Z,101029.47
2022-11-02T03:48:04.361Z,101033.75
2022-11-02T03:51:12.403Z,101035.47
2022-11-02T03:54:34.142Z,101040.56
2022-11-02T03:57:57.608Z,101053.81
2022-11-02T04:01:03.897Z,101057.34
2022-11-02T04:04:05.727Z,101060.75
2022-11-02T04:07:07.379Z,101059.78
2022-11-02T04:10:09.191Z,101056.16
2022-11-02T04:13:29.355Z,101056.88
2022-11-02T04:16:30.874Z,101060.28
2022-11-02T04:19:32.412Z,101059.22
2022-11-02T04:22:52.288Z,101066.25
2022-11-02T04:25:55.035Z,101075.97
2022-11-02T04:28:56.579Z,101070.50
2022-11-02T04:31:58.462Z,101053.44
2022-11-02T04:34:59.983Z,101061.34
2022-11-02T04:38:20.279Z,101066.69
2022-11-02T04:41:41.759Z,101075.66
2022-11-02T04:44:43.327Z,101073.91
2022-11-02T04:47:44.887Z,101083.78
2022-11-02T04:50:46.416Z,101070.50
2022-11-02T04:53:49.221Z,101067.09
2022-11-02T04:56:50.798Z,101080.63
2022-11-02T04:59:52.380Z,101081.69
2022-11-02T05:02:53.992Z,101093.41
2022-11-02T05:05:55.974Z,101092.56
2022-11-02T05:08:57.607Z,101083.06
2022-11-02T05:11:59.315Z,101070.03
2022-11-02T05:15:00.983Z,101080.03
2022-11-02T05:18:02.792Z,101084.00
2022-11-02T05:21:05.072Z,101078.75
2022-11-02T05:24:07.039Z,101078.13
2022-11-02T05:27:10.135Z,101085.56
2022-11-02T05:30:12.236Z,101082.16
2022-11-02T05:33:13.940Z,101089.38
2022-11-02T05:36:16.403Z,101085.31
2022-11-02T05:39:17.907Z,101098.72
2022-11-02T05:42:19.528Z,101103.13
2022-11-02T05:45:23.701Z,101100.59
2022-11-02T05:48:27.623Z,101103.25
2022-11-02T05:51:29.126Z,101103.69
2022-11-02T05:54:30.679Z,101106.53
2022-11-02T05:57:32.274Z,101112.06
2022-11-02T06:00:33.795Z,101112.38
2022-11-02T06:03:36.319Z,101105.44
2022-11-02T06:06:37.892Z,101114.47
2022-11-02T06:09:39.497Z,101109.44
2022-11-02T06:12:41.143Z,101112.19
2022-11-02T06:15:42.730Z,101105.38
2022-11-02T06:18:45.643Z,101100.22
2022-11-02T06:21:48.502Z,101103.94
2022-11-02T06:24:50.338Z,101108.53
2022-11-02T06:27:55.084Z,101113.97
2022-11-02T06:30:57.221Z,101108.84
2022-11-02T06:33:58.739Z,101124.94
2022-11-02T06:37:00.432Z,101112.66
2022-11-02T06:40:02.010Z,101126.91
2022-11-02T06:43:15.835Z,101110.25
2022-11-02T06:46:17.937Z,101117.63
2022-11-02T06:49:19.483Z,101115.03
2022-11-02T06:52:21.020Z,101112.47
2022-11-02T06:55:22.512Z,101117.91
2022-11-02T06:58:24.969Z,101118.75
2022-11-02T07:01:26.576Z,101124.06
2022-11-02T07:04:28.202Z,101130.06
2022-11-02T07:07:29.759Z,101127.97
2022-11-02T07:10:31.851Z,101132.69
2022-11-02T07:13:33.395Z,101141.94
2022-11-02T07:16:35.036Z,101142.75
2022-11-02T07:19:36.604Z,101149.31
2022-11-02T07:22:38.193Z,101149.88
2022-11-02T07:25:39.751Z,101158.63
2022-11-02T07:28:41.399Z,101178.03
2022-11-02T07:31:43.127Z,101168.22
2022-11-02T07:34:45.095Z,101178.78
2022-11-02T07:37:55.671Z,101165.56
2022-11-02T07:40:57.205Z,101172.69
2022-11-02T07:43:58.892Z,101173.63
2022-11-02T07:47:01.486Z,101188.59
2022-11-02T07:50:03.227Z,101188.59
2022-11-02T07:53:05.151Z,101195.75
2022-11-02T07:56:07.744Z,101198.41
2022-11-02T07:59:10.781Z,101197.44
2022-11-02T08:02:13.661Z,101216.66
2022-11-02T08:05:15.284Z,101211.16
2022-11-02T08:08:20.940Z,101207.41
2022-11-02T08:11:22.441Z,101216.19
2022-11-02T08:14:24.039Z,101225.78
2022-11-02T08:17:25.602Z,101218.53
2022-11-02T08:20:27.311Z,101225.59
2022-11-02T08:23:28.879Z,101228.06
2022-11-02T08:26:30.912Z,101226.03
2022-11-02T08:29:32.683Z,101233.84
2022-11-02T08:32:34.210Z,101230.03
2022-11-02T08:35:37.662Z,101225.38
2022-11-02T08:38:40.085Z,101238.53
2022-11-02T08:41:41.585Z,101236.59
2022-11-02T08:44:43.145Z,101247.28
2022-11-02T08:47:45.016Z,101238.31
2022-11-02T08:50:48.923Z,101254.22
2022-11-02T08:53:51.875Z,101256.69
2022-11-02T08:56:53.627Z,101262.97
2022-11-02T08:59:55.215Z,101276.31
2022-11-02T09:03:04.273Z,101276.31
2022-11-02T09:06:06.122Z,101263.09
2022-11-02T09:09:07.666Z,101278.25
2022-11-02T09:12:09.189Z,101286.31
2022-11-02T09:15:10.777Z,101289.97
2022-11-02T09:18:12.278Z,101292.53
2022-11-02T09:21:14.010Z,101296.06
2022-11-02T09:24:15.857Z,101303.19
2022-11-02T09:27:17.362Z,101309.28
2022-11-02T09:30:19.078Z,101306.91
2022-11-02T09:33:20.648Z,101313.38
2022-11-02T09:36:22.213Z,101316.25
2022-11-02T09:39:24.900Z,101316.47
2022-11-02T09:42:53.338Z,101326.28
2022-11-02T09:46:26.111Z,101330.75
2022-11-02T09:49:30.054Z,101336.28
2022-11-02T09:52:40.077Z,101340.75
2022-11-02T09:55:52.246Z,101343.16
2022-11-02T09:58:59.692Z,101337.22
2022-11-02T10:02:11.393Z,101349.66
2022-11-02T10:05:32.251Z,101357.81
2022-11-02T10:08:53.681Z,101359.13
2022-11-02T10:12:21.292Z,101362.66
2022-11-02T10:15:28.911Z,101366.84
2022-11-02T10:18:31.374Z,101365.69
2022-11-02T10:21:34.587Z,101369.13
2022-11-02T10:24:43.283Z,101378.75
2022-11-02T10:27:50.219Z,101382.16
2022-11-02T10:30:53.931Z,101395.41
2022-11-02T10:33:58.335Z,101394.47
2022-11-02T10:37:24.163Z,101388.06
2022-11-02T10:40:37.911Z,101385.56
2022-11-02T10:44:03.811Z,101396.25
2022-11-02T10:47:10.802Z,101404.28
2022-11-02T10:50:15.264Z,101397.25
2022-11-02T10:56:42.042Z,101414.31
2022-11-02T10:59:43.569Z,101421.47
2022-11-02T11:02:45.091Z,101432.91
2022-11-02T11:05:59.547Z,101445.88
2022-11-02T11:09:07.806Z,101450.50
2022-11-02T11:12:29.352Z,101462.97
2022-11-02T11:15:49.763Z,101455.22
2022-11-02T11:22:33.133Z,101466.69
2022-11-02T11:25:34.823Z,101474.53
2022-11-02T11:28:53.405Z,101477.41
2022-11-02T11:31:55.079Z,101471.41
2022-11-02T11:35:01.422Z,101467.88
2022-11-02T11:38:07.732Z,101480.19
2022-11-02T11:41:12.406Z,101485.97
2022-11-02T11:44:15.367Z,101474.22
2022-11-02T11:47:17.078Z,101502.56
2022-11-02T11:50:27.882Z,101488.31
2022-11-02T11:53:32.311Z,101496.47
2022-11-02T11:56:34.782Z,101506.28
2022-11-02T11:59:42.422Z,101498.81
2022-11-02T12:02:44.903Z,101488.66
2022-11-02T12:06:06.008Z,101487.50
2022-11-02T12:09:19.427Z,101500.78
2022-11-02T12:12:32.727Z,101510.28
2022-11-02T12:16:07.044Z,101530.22
2022-11-02T12:19:22.787Z,101525.63
2022-11-02T12:22:50.739Z,101517.72
2022-11-02T12:26:13.352Z,101525.75
2022-11-02T12:29:36.909Z,101532.72
2022-11-02T12:33:15.795Z,101528.88
2022-11-02T12:36:28.510Z,101557.03
2022-11-02T12:40:07.328Z,101534.78
2022-11-02T12:43:30.859Z,101563.03
2022-11-02T12:46:48.695Z,101555.84
2022-11-02T12:50:19.426Z,101551.16
2022-11-02T12:53:45.577Z,101560.16
2022-11-02T12:56:52.725Z,101558.41
2022-11-02T13:00:00.110Z,101554.91
2022-11-02T13:03:16.699Z,101565.50
2022-11-02T13:06:29.423Z,101563.78
2022-11-02T13:09:51.369Z,101559.28
2022-11-02T13:12:58.403Z,101563.78
2022-11-02T13:16:01.407Z,101563.78
2022-11-02T13:19:04.275Z,101570.97
2022-11-02T13:22:10.551Z,101572.66
2022-11-02T13:25:30.267Z,101560.25
2022-11-02T13:28:48.688Z,101572.97
2022-11-02T13:32:29.667Z,101577.66
2022-11-02T13:35:37.658Z,101580.78
2022-11-02T13:38:46.734Z,101578.41
2022-11-02T13:42:30.164Z,101582.25
2022-11-02T13:45:50.296Z,101587.91
2022-11-02T13:49:00.919Z,101590.03
2022-11-02T13:52:05.122Z,101588.53
2022-11-02T13:55:16.006Z,101593.31
2022-11-02T13:58:31.403Z,101586.38
2022-11-02T14:01:36.690Z,101594.59
2022-11-02T14:04:40.916Z,101597.06
2022-11-02T14:07:42.504Z,101596.00
2022-11-02T14:10:44.123Z,101602.22
2022-11-02T14:13:51.986Z,101606.59
2022-11-02T14:16:53.579Z,101606.50
2022-11-02T14:19:56.910Z,101601.03
2022-11-02T14:23:14.387Z,101608.00
2022-11-02T14:26:32.848Z,101613.66
2022-11-02T14:29:46.640Z,101619.31
2022-11-02T14:33:06.712Z,101617.72
2022-11-02T14:36:32.210Z,101620.66
2022-11-02T14:39:50.945Z,101621.94
2022-11-02T14:43:11.243Z,101619.47
2022-11-02T14:46:23.373Z,101616.03
2022-11-02T14:49:30.045Z,101625.97
2022-11-02T14:52:36.530Z,101620.81
2022-11-02T14:55:39.194Z,101608.31
2022-11-02T14:58:50.685Z,101608.38
2022-11-02T15:01:59.223Z,101619.94
2022-11-02T15:05:04.018Z,101627.09
2022-11-02T15:08:17.614Z,101618.78
2022-11-02T15:11:46.900Z,101623.06
2022-11-02T15:14:49.029Z,101628.66
2022-11-02T15:17:52.444Z,101632.38
2022-11-02T15:21:13.219Z,101630.75
2022-11-02T15:24:19.836Z,101635.44
2022-11-02T15:27:22.971Z,101634.75
2022-11-02T15:30:28.343Z,101639.47
2022-11-02T15:33:43.896Z,101643.94
2022-11-02T15:36:46.089Z,101636.09
2022-11-02T15:39:52.547Z,101628.28
2022-11-02T15:43:21.495Z,101635.69
2022-11-02T15:46:38.559Z,101632.25
2022-11-02T15:50:25.784Z,101635.34
2022-11-02T15:53:55.845Z,101631.69
2022-11-02T15:57:38.871Z,101633.03
2022-11-02T16:00:40.580Z,101634.28
2022-11-02T16:03:57.094Z,101650.53
2022-11-02T16:07:05.439Z,101638.41
2022-11-02T16:10:20.816Z,101650.22
2022-11-02T16:13:22.915Z,101641.66
2022-11-02T16:16:24.724Z,101629.53
2022-11-02T16:19:26.528Z,101629.81
2022-11-02T16:22:28.144Z,101631.97
2022-11-02T16:25:40.401Z,101641.22
2022-11-02T16:28:42.374Z,101629.19
2022-11-02T16:31:43.970Z,101631.28
2022-11-02T16:34:45.954Z,101635.09
2022-11-02T16:37:50.187Z,101641.38
2022-11-02T16:40:52.080Z,101637.97
2022-11-02T16:43:54.538Z,101640.16
2022-11-02T16:47:00.087Z,101638.41
2022-11-02T16:50:02.134Z,101634.75
2022-11-02T16:53:03.664Z,101649.19
2022-11-02T16:56:18.528Z,101644.00
2022-11-02T16:59:21.490Z,101647.25
2022-11-02T17:02:38.511Z,101645.34
2022-11-02T17:05:42.101Z,101648.59
2022-11-02T17:08:44.758Z,101645.69
2022-11-02T17:11:46.581Z,101641.50
2022-11-02T17:14:49.888Z,101645.88
2022-11-02T17:18:23.125Z,101644.63
2022-11-02T17:21:28.136Z,101637.38
2022-11-02T17:24:32.340Z,101637.63
2022-11-02T17:27:39.156Z,101647.69
2022-11-02T17:30:45.271Z,101647.06
2022-11-02T17:33:48.109Z,101647.16
2022-11-02T17:36:50.746Z,101645.28
2022-11-02T17:39:53.603Z,101645.19
2022-11-02T17:42:59.572Z,101637.81
2022-11-02T17:46:01.153Z,101644.69
2022-11-02T17:49:02.709Z,101651.53
2022-11-02T17:52:04.572Z,101645.03
2022-11-02T17:55:07.227Z,101646.47
2022-11-02T17:58:10.428Z,101640.56
2022-11-02T18:01:13.016Z,101638.13
2022-11-02T18:04:14.691Z,101643.84
2022-11-02T18:07:16.303Z,101632.59
2022-11-02T18:10:19.416Z,101640.00
2022-11-02T18:13:23.706Z,101638.63
2022-11-02T18:16:25.265Z,101628.31
2022-11-02T18:19:28.250Z,101633.91
2022-11-02T18:22:29.784Z,101628.84
2022-11-02T18:25:32.427Z,101623.69
2022-11-02T18:28:34.755Z,101615.88
2022-11-02T18:31:37.290Z,101617.66
2022-11-02T18:34:38.839Z,101623.19
2022-11-02T18:37:41.441Z,101626.16
2022-11-02T18:40:43.069Z,101616.59
2022-11-02T18:43:44.560Z,101616.94
2022-11-02T18:46:46.084Z,101618.06
2022-11-02T18:49:47.741Z,101620.13
2022-11-02T18:52:50.796Z,101608.78
2022-11-02T18:55:52.657Z,101609.84
2022-11-02T18:58:55.212Z,101605.44
2022-11-02T19:01:56.924Z,101601.13
2022-11-02T19:04:58.674Z,101601.31
2022-11-02T19:08:19.375Z,101592.81
2022-11-02T19:11:21.689Z,101598.47
2022-11-02T19:14:24.486Z,101593.16
2022-11-02T19:17:26.808Z,101597.81
2022-11-02T19:20:28.340Z,101599.78
2022-11-02T19:23:29.876Z,101591.88
2022-11-02T19:26:31.688Z,101584.03
2022-11-02T19:29:34.086Z,101585.09
2022-11-02T19:32:35.661Z,101592.41
2022-11-02T19:35:37.348Z,101576.75
2022-11-02T19:38:39.851Z,101578.63
2022-11-02T19:41:41.450Z,101565.66
2022-11-02T19:44:43.128Z,101564.97
2022-11-02T19:47:44.799Z,101557.19
2022-11-02T19:50:46.359Z,101560.97
2022-11-02T19:53:53.135Z,101553.09
2022-11-02T19:56:54.714Z,101555.91
2022-11-02T19:59:56.219Z,101551.72
2022-11-02T20:02:57.833Z,101545.53
2022-11-02T20:06:01.159Z,101544.56
2022-11-02T20:09:04.770Z,101544.66
2022-11-02T20:12:07.603Z,101544.75
2022-11-02T20:15:10.927Z,101545.69
2022-11-02T20:18:19.403Z,101543.13
2022-11-02T20:21:29.845Z,101544.97
2022-11-02T20:24:32.976Z,101544.31
2022-11-02T20:27:40.771Z,101541.69
2022-11-02T20:30:43.323Z,101527.63
2022-11-02T20:33:45.533Z,101530.22
2022-11-02T20:36:47.575Z,101526.75
2022-11-02T20:39:49.955Z,101522.47
2022-11-02T20:42:51.523Z,101523.50
2022-11-02T20:46:23.761Z,101517.41
2022-11-02T20:49:48.931Z,101520.16
2022-11-02T20:52:45.683Z,101517.56
2022-11-02T20:55:47.248Z,101511.56
2022-11-02T20:58:55.488Z,101516.88
2022-11-02T21:01:57.739Z,101512.50
2022-11-02T21:04:59.329Z,101504.50
2022-11-02T21:08:01.072Z,101503.84
2022-11-02T21:11:04.192Z,101511.97
2022-11-02T21:14:05.743Z,101511.25
2022-11-02T21:17:07.359Z,101507.53
2022-11-02T21:23:31.205Z,101497.75
2022-11-02T21:26:32.862Z,101499.59
2022-11-02T21:29:34.927Z,101493.50
2022-11-02T21:32:36.462Z,101493.75
2022-11-02T21:35:37.996Z,101492.38
2022-11-02T21:38:39.590Z,101495.28
2022-11-02T21:41:41.169Z,101495.50
2022-11-02T21:44:42.763Z,101487.78
2022-11-02T21:47:44.353Z,101481.78
2022-11-02T21:50:45.986Z,101488.03
2022-11-02T21:53:48.794Z,101487.34
2022-11-02T21:56:50.427Z,101484.09
2022-11-02T21:59:52.047Z,101474.47
2022-11-02T22:02:53.590Z,101487.91
2022-11-02T22:05:55.100Z,101485.50
2022-11-02T22:08:56.836Z,101482.13
2022-11-02T22:12:16.955Z,101477.94
2022-11-02T22:15:18.449Z,101468.22
2022-11-02T22:18:20.005Z,101468.38
2022-11-02T22:21:22.448Z,101473.88
2022-11-02T22:24:24.076Z,101465.91
2022-11-02T22:27:25.579Z,101470.28
2022-11-02T22:30:29.456Z,101455.31
2022-11-02T22:33:31.102Z,101456.00
2022-11-02T22:36:34.206Z,101458.25
2022-11-02T22:39:35.722Z,101446.19
2022-11-02T22:42:39.875Z,101440.25
2022-11-02T22:45:44.002Z,101434.53
2022-11-02T22:48:45.605Z,101438.47
2022-11-02T22:51:49.438Z,101421.94
2022-11-02T22:54:50.962Z,101438.94
2022-11-02T22:57:59.776Z,101416.19
2022-11-02T23:01:02.299Z,101418.31
2022-11-02T23:04:05.376Z,101416.78
2022-11-02T23:07:06.922Z,101404.50
2022-11-02T23:10:28.736Z,101396.59
2022-11-02T23:13:30.306Z,101400.38
2022-11-02T23:16:35.659Z,101397.16
2022-11-02T23:19:38.298Z,101391.06
2022-11-02T23:22:39.843Z,101388.47
2022-11-02T23:25:41.418Z,101384.16
2022-11-02T23:29:01.601Z,101382.47
2022-11-02T23:32:22.033Z,101372.16
2022-11-02T23:35:41.961Z,101363.41
2022-11-02T23:39:04.544Z,101366.13
2022-11-02T23:42:06.087Z,101352.19
2022-11-02T23:45:08.429Z,101358.47
2022-11-02T23:48:10.061Z,101340.88
2022-11-02T23:51:30.232Z,101343.59
2022-11-02T23:54:50.485Z,101348.16
2022-11-02T23:57:52.000Z,101329.69
